KMLJ/MLJ METAR and TAF weather

Enter ICAO airport designator
Station Type Date Time Source
KMLJ METAR 2019/10/23 20:15 UTC NOAA

KMLJ 232015Z AUTO 00000KT 10SM CLR 21/01 A3014 RMK AO2


Station Type Date Time Source
KMLJ Decoded METAR 2019/10/23 20:15 UTC NOAA

Milledgeville, Baldwin County Airport, GA, United States (KMLJ) 33-09-15N 083-14-26W
Oct 23, 2019 - 04:15 PM EDT / 2019.10.23 2015 UTC
Wind: Calm:0
Visibility: 10 mile(s):0
Sky conditions: clear
Temperature: 69 F (21 C)
Dew Point: 33 F (1 C)
Relative Humidity: 26%
Pressure (altimeter): 30.14 in. Hg (1020 hPa)
ob: KMLJ 232015Z AUTO 00000KT 10SM CLR 21/01 A3014 RMK AO2
cycle: 20

Station Type Date Time Source
KMLJ TAF UTC NOAA

Error!

Example: see airport list